Latest Weather Observations for Cape Bruny AWS

IDT60901

Issued at 4:41 am EST Monday 24 July 2017 (issued every 10 minutes, with the page automatically refreshed every 10 minutes)

About weather observations | Map of Hobart area stations | Latest observations for Hobart area | Other Formats
Station Details ID: 094198 Name: CAPE BRUNY (CAPE BRUNY) Lat: -43.49 Lon: 147.14 Height: 59.7 m
Data from the previous 72 hours. | See also: Recent months at Cape Bruny AWS
Date/Time
EST
Temp
°C
App
Temp
°C
Dew
Point
°C
Rel
Hum
%
Delta-T
°C
Wind Press
QNH
hPa
Press
MSL
hPa
Rain since
9am
mm
Dir  Spd
km/h
Gust
km/h
Spd
kts
Gust
kts
24/04:30am 6.7 -1.1 1.4 69 2.1 WNW 32 39 17 21 1007.2 1007.3 3.6
24/04:00am 6.8 -1.5 2.3 73 1.9 WNW 35 46 19 25 1007.2 1007.3 3.6
24/03:42am 6.9 -0.1 2.0 71 2.0 WNW 28 46 15 25 1007.2 1007.3 3.6
24/03:30am 6.7 -1.0 2.2 73 1.8 WNW 32 43 17 23 1007.1 1007.2 3.6
24/03:00am 6.9 -1.4 2.0 71 2.0 WNW 35 46 19 25 1007.3 1007.4 3.6
24/02:30am 7.0 -1.2 2.5 73 1.9 WNW 35 44 19 24 1007.4 1007.5 3.6
24/02:00am 6.6 -1.3 2.5 75 1.7 WNW 33 44 18 24 1007.1 1007.2 3.6
24/01:30am 6.6 -1.3 2.3 74 1.8 WNW 33 48 18 26 1007.0 1007.1 3.6
24/01:00am 6.3 -2.0 2.2 75 1.7 WNW 35 44 19 24 1007.1 1007.2 3.6
24/12:30am 6.3 -1.1 2.0 74 1.7 WNW 30 46 16 25 1007.3 1007.4 3.6
24/12:26am 6.4 -0.6 1.9 73 1.8 WNW 28 46 15 25 1007.3 1007.4 3.6
24/12:00am 6.2 -1.2 1.9 74 1.7 WNW 30 41 16 22 1007.3 1007.4 3.6
 
Date/Time
EST
Temp
°C
App
Temp
°C
Dew
Point
°C
Rel
Hum
%
Delta-T
°C
Wind Press
QNH
hPa
Press
MSL
hPa
Rain since
9am
mm
Dir  Spd
km/h
Gust
km/h
Spd
kts
Gust
kts
23/11:30pm 5.9 -1.2 1.2 72 1.9 WNW 28 35 15 19 1007.2 1007.3 3.6
23/11:00pm 5.9 -2.5 1.6 74 1.7 WNW 35 44 19 24 1007.5 1007.6 3.6
23/10:30pm 6.3 -1.7 1.4 71 2.0 WNW 33 44 18 24 1007.2 1007.3 3.6
23/10:00pm 6.0 -1.1 1.3 72 1.9 WNW 28 39 15 21 1007.3 1007.4 3.6
23/09:30pm 6.2 -1.3 0.9 69 2.1 W 30 37 16 20 1007.3 1007.4 3.6
23/09:00pm 5.9 -3.2 1.6 74 1.7 W 39 48 21 26 1006.9 1007.0 3.6
23/08:30pm 5.9 -2.1 1.8 75 1.7 W 33 43 18 23 1006.6 1006.7 3.6
23/08:00pm 5.6 -5.5 2.3 79 1.3 W 50 69 27 37 1006.3 1006.4 3.6
23/07:30pm 5.8 -4.7 1.2 72 1.8 W 46 69 25 37 1005.9 1006.0 3.6
23/07:21pm 6.0 -3.1 1.9 75 1.7 W 39 61 21 33 1005.8 1005.9 3.6
23/07:00pm 5.6 -4.9 1.5 75 1.6 W 46 59 25 32 1005.5 1005.6 3.6
23/06:44pm 6.4 -3.6 2.3 75 1.7 WSW 44 72 24 39 1005.3 1005.4 3.6
23/06:30pm 6.5 -3.4 1.8 72 1.9 W 43 57 23 31 1005.3 1005.4 3.6
23/06:00pm 6.1 -4.4 1.2 71 2.0 WSW 46 59 25 32 1005.0 1005.1 3.6
23/05:39pm 6.3 -1.6 2.0 74 1.7 W 33 52 18 28 1004.9 1005.0 3.6
23/05:30pm 6.4 -2.3 2.3 75 1.7 W 37 48 20 26 1004.8 1004.9 3.6
23/05:00pm 6.0 -3.8 2.5 78 1.4 WSW 43 59 23 32 1004.1 1004.1 3.6
23/04:54pm 5.8 -3.2 2.6 80 1.3 W 39 59 21 32 1004.1 1004.1 3.6
23/04:30pm 6.0 -3.6 3.2 82 1.2 WSW 43 57 23 31 1003.8 1003.8 3.4
23/04:00pm 6.0 -2.8 3.7 85 1.0 WSW 39 57 21 31 1003.5 1003.5 3.0
23/03:30pm 6.1 -2.4 3.4 83 1.1 WSW 37 61 20 33 1003.0 1003.0 2.8
23/03:14pm 6.6 -1.4 3.8 82 1.2 SW 35 54 19 29 1002.6 1002.6 2.8
23/03:00pm 6.4 -2.4 3.6 82 1.2 SW 39 56 21 30 1002.4 1002.4 2.8
23/02:33pm 6.8 -0.7 4.6 86 1.0 SW 33 52 18 28 1001.5 1001.6 2.8
23/02:30pm 6.9 -1.3 4.7 86 1.0 SW 37 54 20 29 1001.5 1001.6 2.6
23/02:20pm 6.8 -1.1 4.6 86 1.0 SW 35 54 19 29 1001.4 1001.5 2.6
23/02:00pm 7.2 -0.6 4.9 85 1.0 SW 35 50 19 27 1001.1 1001.2 2.4
23/01:50pm 6.9 -0.3 4.9 87 0.9 SW 32 50 17 27 1001.0 1001.1 2.4
23/01:30pm 7.5 0.3 6.0 90 0.7 SW 33 50 18 27 1000.7 1000.8 2.0
23/01:10pm 7.6 0.4 5.7 88 0.9 SW 33 52 18 28 1000.4 1000.5 2.0
23/01:00pm 7.5 -0.8 6.0 90 0.7 SW 39 52 21 28 1000.4 1000.5 2.0
23/12:51pm 8.1 1.1 5.9 86 1.0 SW 32 52 17 28 1000.3 1000.4 1.8
23/12:30pm 8.5 2.4 6.8 89 0.8 SW 28 43 15 23 1000.1 1000.2 1.6
23/12:23pm 8.4 2.3 6.4 87 0.9 SW 28 46 15 25 1000.0 1000.1 1.6
23/12:00pm 8.0 1.8 6.1 88 0.9 SW 28 44 15 24 999.8 999.9 1.6
23/11:30am 8.7 3.1 7.2 90 0.7 SW 26 44 14 24 999.5 999.6 1.6
23/11:02am 8.7 1.9 6.8 88 0.9 SW 32 50 17 27 999.1 999.2 1.6
23/11:00am 8.8 1.8 6.9 88 0.9 SW 33 48 18 26 999.1 999.2 1.6
23/10:47am 8.9 2.0 7.2 89 0.8 SW 33 52 18 28 998.9 999.0 1.4
23/10:39am 9.0 1.8 7.6 91 0.7 W 35 46 19 25 998.8 998.9 1.4
23/10:30am 8.7 0.9 6.7 87 0.9 W 37 52 20 28 998.4 998.5 0.6
23/10:24am 9.2 3.1 6.8 85 1.1 W 28 46 15 25 998.3 998.4 0.2
23/10:00am 8.8 2.7 6.4 85 1.1 W 28 41 15 22 998.4 998.5 0.2
23/09:30am 8.6 3.3 5.2 79 1.5 NW 22 32 12 17 997.9 998.0 0.0
23/09:00am 7.6 1.1 4.9 83 1.2 NNW 28 37 15 20 997.8 997.9 10.0
23/08:30am 7.3 -0.2 4.6 83 1.2 NW 33 44 18 24 997.5 997.6 10.0
23/08:00am 7.4 0.2 5.2 86 1.0 NW 32 43 17 23 997.5 997.6 10.0
23/07:53am 7.5 0.7 5.1 85 1.1 NW 30 39 16 21 997.5 997.6 9.8
23/07:30am 7.5 -0.5 5.6 88 0.9 W 37 44 20 24 997.4 997.5 9.0
23/07:10am 8.2 -1.7 6.5 89 0.8 WSW 48 69 26 37 996.9 997.0 7.6
23/07:00am 8.3 0.4 6.3 87 0.9 W 37 54 20 29 996.9 997.0 7.2
23/06:59am 8.3 0.8 6.1 86 1.0 W 35 54 19 29 996.9 997.0 7.2
23/06:46am 8.2 4.0 5.8 85 1.1 WSW 17 43 9 23 997.0 997.1 7.0
23/06:30am 8.4 5.0 5.9 84 1.1 NNW 13 20 7 11 996.6 996.7 7.0
23/06:00am 8.3 2.3 5.4 82 1.3 NW 26 35 14 19 996.5 996.6 7.0
23/05:30am 7.8 0.7 5.3 84 1.1 NW 32 43 17 23 996.1 996.2 7.0
23/05:00am 8.1 -0.2 5.9 86 1.0 WNW 39 54 21 29 996.7 996.8 6.8
23/04:30am 9.0 1.7 7.0 87 0.9 WNW 35 48 19 26 997.1 997.2 5.6
23/04:24am 9.2 0.8 7.2 87 0.9 WNW 41 54 22 29 997.0 997.1 5.2
23/04:00am 10.4 3.6 7.5 82 1.4 W 33 48 18 26 996.8 996.9 3.4
23/03:58am 10.9 4.1 7.6 80 1.6 WNW 33 48 18 26 996.7 996.8 3.4
23/03:39am 11.1 3.2 6.3 72 2.3 WNW 37 56 20 30 996.1 996.2 3.4
23/03:30am 11.2 3.7 6.1 71 2.4 NW 35 52 19 28 995.8 995.9 3.4
23/03:12am 11.2 4.0 6.1 71 2.4 WNW 33 52 18 28 996.2 996.3 3.4
23/03:00am 10.8 4.3 6.6 75 2.0 NW 30 41 16 22 996.3 996.4 3.4
23/02:30am 10.8 3.0 6.6 75 2.0 NW 37 46 20 25 996.5 996.6 3.4
23/02:00am 10.8 4.0 6.9 77 1.9 NW 32 43 17 23 996.5 996.6 3.4
23/01:30am 10.4 5.9 7.1 80 1.6 NW 20 33 11 18 997.1 997.2 3.4
23/01:00am 10.0 5.2 7.4 84 1.3 NNW 22 33 12 18 997.2 997.3 3.4
23/12:42am 10.8 5.2 8.9 88 0.9 NW 28 44 15 24 998.6 998.7 2.8
23/12:30am 10.9 6.7 8.3 84 1.3 NNW 20 28 11 15 998.2 998.3 0.8
23/12:00am 11.6 8.1 7.3 75 2.1 NNE 15 24 8 13 997.6 997.7 0.0
 
Date/Time
EST
Temp
°C
App
Temp
°C
Dew
Point
°C
Rel
Hum
%
Delta-T
°C
Wind Press
QNH
hPa
Press
MSL
hPa
Rain since
9am
mm
Dir  Spd
km/h
Gust
km/h
Spd
kts
Gust
kts
22/11:30pm 11.5 7.5 6.8 73 2.2 NNE 17 30 9 16 998.0 998.1 0.0
22/11:00pm 11.2 7.3 6.9 75 2.1 NE 17 24 9 13 998.3 998.4 0.0
22/10:30pm 11.0 7.1 7.1 77 1.9 NNE 17 22 9 12 999.0 999.1 0.0
22/10:00pm 11.3 6.8 6.8 74 2.2 NNE 20 32 11 17 999.3 999.4 0.0
22/09:30pm 11.3 6.8 7.0 75 2.1 NNE 20 30 11 16 999.6 999.7 0.0
22/09:00pm 11.8 7.8 6.7 71 2.4 NNE 17 26 9 14 1000.2 1000.3 0.0
22/08:30pm 11.8 7.8 6.7 71 2.4 NNE 17 28 9 15 1000.6 1000.7 0.0
22/08:00pm 12.1 7.2 6.8 70 2.6 NNE 22 33 12 18 1001.1 1001.2 0.0
22/07:30pm 12.0 8.0 6.7 70 2.5 N 17 28 9 15 1001.5 1001.6 0.0
22/07:00pm 11.7 7.4 7.0 73 2.3 N 19 32 10 17 1002.1 1002.1 0.0
22/06:30pm 11.6 7.1 7.1 74 2.2 NNW 20 33 11 18 1002.4 1002.4 0.0
22/06:00pm 11.6 6.9 7.7 77 1.9 NNW 22 33 12 18 1002.9 1002.9 0.0
22/05:30pm 12.1 7.2 6.8 70 2.5 NNW 22 32 12 17 1002.8 1002.8 0.0
22/05:00pm 11.9 7.1 7.2 73 2.3 NNW 22 32 12 17 1002.9 1002.9 0.0
22/04:30pm 12.1 7.3 7.4 73 2.3 NNW 22 32 12 17 1003.3 1003.3 0.0
22/04:00pm 12.3 7.5 7.4 72 2.4 NNW 22 30 12 16 1003.5 1003.5 0.0
22/03:30pm 12.3 7.9 7.2 71 2.5 NNW 20 30 11 16 1003.7 1003.7 0.0
22/03:00pm 12.5 6.9 7.0 69 2.7 NW 26 35 14 19 1003.9 1003.9 0.0
22/02:30pm 12.5 7.6 7.0 69 2.7 NNW 22 32 12 17 1004.3 1004.4 0.0
22/02:00pm 12.9 7.6 6.9 67 2.9 NW 24 35 13 19 1004.6 1004.7 0.0
22/01:30pm 12.5 8.0 7.0 69 2.7 NNW 20 32 11 17 1005.0 1005.1 0.0
22/01:00pm 10.8 7.5 6.2 73 2.2 N 13 20 7 11 1005.5 1005.6 0.0
22/12:30pm 10.6 7.1 5.6 71 2.3 NNE 13 17 7 9 1006.1 1006.2 0.0
22/12:00pm 9.9 5.4 4.3 68 2.5 NE 17 22 9 12 1006.8 1006.9 0.0
22/11:30am 9.7 4.8 4.3 69 2.4 NE 19 28 10 15 1007.7 1007.8 0.0
22/11:00am 9.2 4.5 3.2 66 2.6 NNE 17 26 9 14 1008.7 1008.8 0.0
22/10:30am 8.7 2.2 2.7 66 2.5 N 26 39 14 21 1008.7 1008.8 0.0
22/10:00am 8.7 1.8 2.7 66 2.5 N 28 35 15 19 1009.1 1009.2 0.0
22/09:30am 8.6 2.5 2.8 67 2.5 NNW 24 30 13 16 1009.5 1009.6 0.0
22/09:00am 9.3 2.8 2.9 64 2.7 NNW 26 35 14 19 1010.0 1010.1 0.2
22/08:30am 8.4 2.7 2.6 67 2.4 NNW 22 30 12 16 1010.2 1010.3 0.2
22/08:00am 7.5 2.3 2.6 71 2.1 N 19 26 10 14 1010.3 1010.4 0.2
22/07:30am 7.4 1.9 2.1 69 2.2 N 20 28 11 15 1010.7 1010.8 0.2
22/07:00am 7.3 2.0 2.8 73 1.9 N 20 26 11 14 1011.0 1011.1 0.2
22/06:30am 7.1 1.0 3.0 75 1.7 N 24 32 13 17 1011.2 1011.3 0.2
22/06:00am 6.5 1.8 3.3 80 1.3 NNE 17 22 9 12 1011.4 1011.5 0.2
22/05:30am 6.6 1.0 3.4 80 1.4 N 22 32 12 17 1011.7 1011.8 0.2
22/05:00am 6.5 -0.3 3.1 79 1.4 N 28 37 15 20 1011.5 1011.6 0.2
22/04:30am 6.1 1.5 3.8 85 1.0 NNE 17 30 9 16 1012.2 1012.3 0.2
22/04:00am 6.3 1.9 4.8 90 0.7 N 17 22 9 12 1012.8 1012.9 0.0
22/03:30am 6.0 1.2 4.5 90 0.6 N 19 24 10 13 1013.4 1013.5 0.0
22/03:00am 6.0 0.7 4.8 92 0.5 N 22 28 12 15 1013.9 1014.0 0.0
22/02:30am 5.6 0.2 4.6 93 0.4 N 22 26 12 14 1014.4 1014.5 0.0
22/02:00am 5.7 0.9 4.5 92 0.5 NNE 19 20 10 11 1014.8 1014.9 0.0
22/01:30am 5.9 1.0 5.0 94 0.4 N 20 22 11 12 1015.0 1015.1 0.0
22/01:00am 5.5 0.4 4.2 91 0.6 N 20 26 11 14 1015.4 1015.5 0.0
22/12:30am 5.9 1.0 4.9 93 0.4 N 20 26 11 14 1015.7 1015.8 0.0
22/12:00am 5.6 0.1 4.1 90 0.6 N 22 26 12 14 1016.3 1016.4 0.0
 
Date/Time
EST
Temp
°C
App
Temp
°C
Dew
Point
°C
Rel
Hum
%
Delta-T
°C
Wind Press
QNH
hPa
Press
MSL
hPa
Rain since
9am
mm
Dir  Spd
km/h
Gust
km/h
Spd
kts
Gust
kts
21/11:30pm 6.4 1.1 5.0 91 0.6 N 22 28 12 15 1016.5 1016.6 0.0
21/11:00pm 6.5 2.2 5.1 91 0.6 N 17 22 9 12 1016.7 1016.8 0.0
21/10:30pm 6.7 2.0 5.2 90 0.7 N 19 26 10 14 1016.8 1016.9 0.0
21/10:00pm 6.6 2.2 4.9 89 0.7 NNE 17 22 9 12 1016.9 1017.0 0.0
21/09:30pm 7.2 3.0 5.8 91 0.6 NNE 17 20 9 11 1017.2 1017.3 0.0
21/09:00pm 7.0 2.6 5.0 87 0.9 N 17 24 9 13 1017.6 1017.7 0.0
21/08:30pm 7.0 2.6 4.8 86 1.0 NNE 17 22 9 12 1017.3 1017.4 0.0
21/08:00pm 7.3 3.3 4.8 84 1.1 N 15 20 8 11 1017.6 1017.7 0.0
21/07:30pm 7.3 2.8 4.4 82 1.3 NNE 17 20 9 11 1017.8 1017.9 0.0
21/07:00pm 7.2 3.1 4.5 83 1.2 N 15 22 8 12 1018.4 1018.6 0.0
21/06:30pm 6.9 3.2 4.2 83 1.2 N 13 17 7 9 1018.7 1018.9 0.0
21/06:00pm 7.0 3.2 4.1 82 1.2 N 13 17 7 9 1018.8 1019.0 0.0
21/05:30pm 6.7 3.3 3.9 82 1.2 NNE 11 13 6 7 1019.0 1019.2 0.0
21/05:00pm 7.8 4.6 4.9 82 1.3 NE 11 13 6 7 1018.8 1019.0 0.0
21/04:30pm 8.9 6.4 4.9 76 1.8 NE 7 11 4 6 1018.7 1018.9 0.0
21/04:00pm 10.0 7.9 5.8 75 1.9 E 6 7 3 4 1018.8 1019.0 0.0
21/03:30pm 10.4 7.7 5.6 72 2.2 NE 9 11 5 6 1018.9 1019.1 0.0
21/03:00pm 11.0 8.3 5.5 69 2.5 NNE 9 11 5 6 1019.2 1019.3 0.0
21/02:30pm 11.3 9.1 6.2 71 2.4 NE 7 11 4 6 1019.4 1019.5 0.0
21/02:00pm 11.2 8.6 6.1 71 2.4 NNE 9 11 5 6 1019.6 1019.7 0.0
21/01:30pm 10.7 7.7 5.9 72 2.2 NNE 11 13 6 7 1020.0 1020.1 0.0
21/01:00pm 10.3 6.9 6.1 75 1.9 NNE 13 17 7 9 1020.4 1020.5 0.0
21/12:30pm 9.7 5.5 5.9 77 1.8 NNE 17 20 9 11 1020.7 1020.8 0.0
21/12:00pm 9.2 4.7 5.9 80 1.5 NNE 19 22 10 12 1021.1 1021.2 0.0
21/11:30am 8.8 4.6 5.9 82 1.3 NNE 17 24 9 13 1021.6 1021.7 0.0
21/11:00am 8.3 4.2 6.1 86 1.0 NNE 17 24 9 13 1022.1 1022.2 0.0
21/10:30am 8.1 4.0 6.1 87 0.9 NNE 17 20 9 11 1022.3 1022.4 0.0
21/10:00am 8.2 5.8 6.8 91 0.6 NNW 9 17 5 9 1022.3 1022.4 0.0
21/09:30am 8.0 5.5 6.6 91 0.6 NW 9 13 5 7 1022.2 1022.3 0.0
21/09:00am 7.8 4.6 6.7 93 0.5 W 13 17 7 9 1022.0 1022.1 3.4
21/08:30am 6.6 3.1 5.6 93 0.4 WNW 13 20 7 11 1021.7 1021.8 3.4
21/08:00am 7.4 3.7 6.3 93 0.5 W 15 19 8 10 1021.4 1021.5 3.0
21/07:30am 7.7 4.1 6.6 93 0.5 WNW 15 17 8 9 1021.2 1021.3 3.0
21/07:00am 7.9 5.0 6.7 92 0.6 W 11 17 6 9 1021.0 1021.1 2.4
21/06:30am 7.9 5.4 6.4 90 0.7 SSE 9 13 5 7 1021.0 1021.1 2.4
21/06:00am 8.2 5.3 6.7 90 0.7 S 11 15 6 8 1020.9 1021.0 2.4
21/05:30am 8.2 4.9 6.2 87 0.9 SW 13 20 7 11 1020.8 1020.9 2.2
21/05:00am 8.5 5.2 6.3 86 1.0 SW 13 17 7 9 1020.7 1020.8 2.2

Latest Capital City Observations: Canberra | Sydney | Melbourne | Brisbane | Adelaide | Perth | Hobart | Darwin

Other Formats:

Comma delimited format used in spreadsheet applications
http://www.bom.gov.au/fwo/IDT60901/IDT60901.95967.axf

JavaScript Object Notation format (JSON) in row-major order
http://www.bom.gov.au/fwo/IDT60901/IDT60901.95967.json